createdAt,value
2018-07-02T00:02:06.719Z,102178.27
2018-07-02T00:04:34.307Z,102179.59
2018-07-02T00:07:11.747Z,102183.50
2018-07-02T00:09:39.295Z,102180.86
2018-07-02T00:12:06.821Z,102184.35
2018-07-02T00:14:34.362Z,102183.91
2018-07-02T00:17:01.887Z,102184.34
2018-07-02T00:19:29.479Z,102185.18
2018-07-02T00:21:57.007Z,102181.26
2018-07-02T00:24:24.530Z,102188.24
2018-07-02T00:26:52.703Z,102179.05
2018-07-02T00:29:20.231Z,102181.66
2018-07-02T00:31:47.808Z,102186.44
2018-07-02T00:34:15.295Z,102190.80
2018-07-02T00:36:42.843Z,102185.53
2018-07-02T00:39:12.050Z,102179.41
2018-07-02T00:41:40.123Z,102182.00
2018-07-02T00:44:07.665Z,102186.34
2018-07-02T00:46:35.181Z,102188.97
2018-07-02T00:49:02.754Z,102191.12
2018-07-02T00:51:30.234Z,102186.33
2018-07-02T00:53:57.763Z,102179.33
2018-07-02T00:56:25.310Z,102175.80
2018-07-02T00:58:52.964Z,102173.17
2018-07-02T01:01:20.847Z,102163.56
2018-07-02T01:03:48.972Z,102176.27
2018-07-02T01:06:16.787Z,102175.38
2018-07-02T01:08:44.302Z,102174.08
2018-07-02T01:11:11.891Z,102168.83
2018-07-02T01:13:39.387Z,102171.44
2018-07-02T01:16:07.038Z,102170.12
2018-07-02T01:18:34.583Z,102169.25
2018-07-02T01:21:02.099Z,102177.09
2018-07-02T01:23:29.678Z,102171.42
2018-07-02T01:25:57.218Z,102171.44
2018-07-02T01:28:24.743Z,102166.19
2018-07-02T01:30:52.278Z,102164.45
2018-07-02T01:33:19.875Z,102167.09
2018-07-02T01:35:47.436Z,102162.28
2018-07-02T01:38:14.947Z,102160.56
2018-07-02T01:40:42.473Z,102154.88
2018-07-02T01:43:10.015Z,102151.39
2018-07-02T01:45:37.545Z,102150.52
2018-07-02T01:48:05.113Z,102153.17
2018-07-02T01:50:32.622Z,102152.30
2018-07-02T01:53:00.217Z,102156.22
2018-07-02T01:55:27.782Z,102156.25
2018-07-02T01:57:55.294Z,102148.82
2018-07-02T02:00:22.834Z,102147.97
2018-07-02T02:02:50.482Z,102149.30
2018-07-02T02:05:18.007Z,102150.61
2018-07-02T02:07:45.522Z,102147.12
2018-07-02T02:10:13.037Z,102148.03
2018-07-02T02:12:40.549Z,102140.58
2018-07-02T02:15:08.499Z,102141.03
2018-07-02T02:17:36.047Z,102142.35
2018-07-02T02:20:03.955Z,102140.20
2018-07-02T02:22:31.468Z,102135.83
2018-07-02T02:24:59.003Z,102133.65
2018-07-02T02:27:26.535Z,102126.22
2018-07-02T02:29:54.079Z,102124.02
2018-07-02T02:32:21.627Z,102124.45
2018-07-02T02:34:49.179Z,102125.31
2018-07-02T02:37:16.762Z,102122.23
2018-07-02T02:39:44.271Z,102113.92
2018-07-02T02:42:11.810Z,102120.02
2018-07-02T02:44:39.331Z,102113.01
2018-07-02T02:47:06.873Z,102116.92
2018-07-02T02:49:34.414Z,102112.97
2018-07-02T02:52:01.943Z,102109.88
2018-07-02T02:54:29.446Z,102104.55
2018-07-02T02:56:56.980Z,102102.33
2018-07-02T02:59:24.477Z,102108.83
2018-07-02T03:01:52.003Z,102103.09
2018-07-02T03:04:19.566Z,102090.73
2018-07-02T03:06:47.083Z,102098.54
2018-07-02T03:09:14.663Z,102092.28
2018-07-02T03:11:42.178Z,102095.22
2018-07-02T03:14:09.687Z,102089.81
2018-07-02T03:16:37.269Z,102087.47
2018-07-02T03:19:05.159Z,102081.52
2018-07-02T03:21:32.703Z,102076.80
2018-07-02T03:24:00.269Z,102076.85
2018-07-02T03:26:27.799Z,102071.16
2018-07-02T03:28:55.346Z,102068.41
2018-07-02T03:31:22.903Z,102066.52
2018-07-02T03:33:50.406Z,102065.45
2018-07-02T03:36:17.933Z,102057.66
2018-07-02T03:38:45.467Z,102066.00
2018-07-02T03:41:12.998Z,102054.05
2018-07-02T03:43:40.544Z,102051.17
2018-07-02T03:46:08.066Z,102049.54
2018-07-02T03:48:35.622Z,102042.70
2018-07-02T03:51:03.402Z,102039.71
2018-07-02T03:53:30.979Z,102041.13
2018-07-02T03:55:58.546Z,102040.66
2018-07-02T03:58:26.239Z,102043.25
2018-07-02T04:00:54.147Z,102043.11
2018-07-02T04:03:21.756Z,102035.75
2018-07-02T04:05:49.324Z,102035.16
2018-07-02T04:08:16.843Z,102037.88
2018-07-02T04:10:44.382Z,102028.00
2018-07-02T04:13:11.971Z,102027.11
2018-07-02T04:15:39.507Z,102022.66
2018-07-02T04:18:07.022Z,102019.75
2018-07-02T04:20:34.562Z,102006.87
2018-07-02T04:23:02.096Z,102011.91
2018-07-02T04:25:29.604Z,102006.25
2018-07-02T04:27:57.129Z,102000.11
2018-07-02T04:30:24.651Z,101998.98
2018-07-02T04:32:52.166Z,101999.75
2018-07-02T04:35:19.679Z,101989.61
2018-07-02T04:37:47.239Z,101982.37
2018-07-02T04:40:14.798Z,101981.77
2018-07-02T04:42:42.359Z,101978.09
2018-07-02T04:45:09.942Z,101976.47
2018-07-02T04:47:37.455Z,101980.09
2018-07-02T04:50:04.997Z,101967.02
2018-07-02T04:52:32.537Z,101967.97
2018-07-02T04:55:00.065Z,101973.53
2018-07-02T04:57:27.782Z,101964.52
2018-07-02T04:59:55.354Z,101964.27
2018-07-02T05:02:22.895Z,101960.50
2018-07-02T05:04:50.388Z,101958.02
2018-07-02T05:07:17.878Z,101952.22
2018-07-02T05:09:45.511Z,101953.88
2018-07-02T05:12:13.033Z,101954.61
2018-07-02T05:14:41.394Z,101950.80
2018-07-02T05:17:08.898Z,101954.49
2018-07-02T05:19:36.390Z,101943.02
2018-07-02T05:22:03.905Z,101942.59
2018-07-02T05:24:31.412Z,101937.61
2018-07-02T05:26:58.954Z,101936.70
2018-07-02T05:29:26.439Z,101931.26
2018-07-02T05:31:53.914Z,101934.62
2018-07-02T05:34:21.467Z,101935.23
2018-07-02T05:36:48.947Z,101920.73
2018-07-02T05:39:16.534Z,101924.41
2018-07-02T05:41:44.040Z,101919.66
2018-07-02T05:44:11.587Z,101921.49
2018-07-02T05:46:39.103Z,101919.94
2018-07-02T05:49:06.622Z,101916.09
2018-07-02T05:51:34.109Z,101917.46
2018-07-02T05:54:01.663Z,101912.79
2018-07-02T05:56:29.210Z,101905.54
2018-07-02T05:58:56.769Z,101903.66
2018-07-02T06:01:24.267Z,101894.20
2018-07-02T06:03:51.758Z,101895.84
2018-07-02T06:06:19.339Z,101895.08
2018-07-02T06:08:47.104Z,101895.27
2018-07-02T06:11:14.587Z,101902.18
2018-07-02T06:13:42.133Z,101899.48
2018-07-02T06:16:09.697Z,101898.64
2018-07-02T06:18:37.212Z,101895.53
2018-07-02T06:21:06.727Z,101888.37
2018-07-02T06:23:34.287Z,101891.20
2018-07-02T06:26:01.801Z,101880.92
2018-07-02T06:28:29.311Z,101884.89
2018-07-02T06:30:56.843Z,101886.17
2018-07-02T06:33:24.354Z,101876.42
2018-07-02T06:35:51.865Z,101881.79
2018-07-02T06:38:19.399Z,101865.14
2018-07-02T06:40:46.903Z,101872.68
2018-07-02T06:43:14.468Z,101867.87
2018-07-02T06:45:41.975Z,101874.09
2018-07-02T06:48:09.525Z,101859.38
2018-07-02T06:50:37.059Z,101867.73
2018-07-02T06:53:04.720Z,101865.88
2018-07-02T06:55:32.363Z,101868.31
2018-07-02T06:57:59.862Z,101860.56
2018-07-02T07:00:27.404Z,101864.49
2018-07-02T07:02:54.935Z,101862.09
2018-07-02T07:05:22.458Z,101860.33
2018-07-02T07:07:50.028Z,101858.98
2018-07-02T07:10:17.617Z,101849.77
2018-07-02T07:12:45.153Z,101848.44
2018-07-02T07:15:12.698Z,101849.52
2018-07-02T07:17:40.247Z,101839.80
2018-07-02T07:20:07.767Z,101833.12
2018-07-02T07:22:35.257Z,101834.84
2018-07-02T07:25:02.810Z,101839.12
2018-07-02T07:27:30.477Z,101835.07
2018-07-02T07:29:58.091Z,101830.42
2018-07-02T07:32:25.629Z,101827.99
2018-07-02T07:34:53.135Z,101822.67
2018-07-02T07:37:20.713Z,101825.84
2018-07-02T07:39:48.254Z,101825.71
2018-07-02T07:42:15.779Z,101821.16
2018-07-02T07:44:43.371Z,101815.92
2018-07-02T07:47:10.867Z,101813.05
2018-07-02T07:49:38.375Z,101799.56
2018-07-02T07:52:05.932Z,101804.01
2018-07-02T07:54:33.458Z,101807.76
2018-07-02T07:57:01.018Z,101813.64
2018-07-02T07:59:28.547Z,101807.21
2018-07-02T08:01:56.081Z,101802.72
2018-07-02T08:04:23.611Z,101791.47
2018-07-02T08:06:51.151Z,101799.92
2018-07-02T08:09:18.690Z,101784.70
2018-07-02T08:11:46.274Z,101781.86
2018-07-02T08:14:13.818Z,101781.84
2018-07-02T08:16:41.401Z,101770.55
2018-07-02T08:19:09.080Z,101772.34
2018-07-02T08:21:36.567Z,101774.50
2018-07-02T08:24:04.100Z,101765.41
2018-07-02T08:26:31.650Z,101768.89
2018-07-02T08:28:59.164Z,101769.48
2018-07-02T08:31:26.693Z,101766.30
2018-07-02T08:33:54.235Z,101761.61
2018-07-02T08:36:21.741Z,101757.20
2018-07-02T08:38:49.282Z,101756.11
2018-07-02T08:41:16.816Z,101748.30
2018-07-02T08:43:44.363Z,101750.02
2018-07-02T08:46:12.023Z,101746.56
2018-07-02T08:48:39.622Z,101742.30
2018-07-02T08:51:07.132Z,101738.02
2018-07-02T08:53:34.765Z,101730.48
2018-07-02T08:56:02.343Z,101739.62
2018-07-02T08:58:29.904Z,101734.09
2018-07-02T09:00:57.463Z,101737.71
2018-07-02T09:03:25.055Z,101730.47
2018-07-02T09:05:52.605Z,101719.33
2018-07-02T09:08:20.149Z,101716.38
2018-07-02T09:10:47.769Z,101700.30
2018-07-02T09:13:15.388Z,101704.20
2018-07-02T09:15:42.946Z,101712.58
2018-07-02T09:18:10.544Z,101701.73
2018-07-02T09:20:38.140Z,101704.87
2018-07-02T09:23:05.751Z,101702.75
2018-07-02T09:25:33.342Z,101701.65
2018-07-02T09:28:00.918Z,101704.39
2018-07-02T09:30:28.468Z,101703.02
2018-07-02T09:32:56.096Z,101699.11
2018-07-02T09:35:23.687Z,101713.31
2018-07-02T09:37:51.287Z,101709.58
2018-07-02T09:40:18.866Z,101699.77
2018-07-02T09:42:46.451Z,101697.44
2018-07-02T09:45:14.120Z,101700.12
2018-07-02T09:47:41.744Z,101686.49
2018-07-02T09:50:09.695Z,101690.63
2018-07-02T09:52:37.234Z,101672.93
2018-07-02T09:55:04.880Z,101668.36
2018-07-02T09:57:32.463Z,101663.30
2018-07-02T10:00:00.174Z,101662.34
2018-07-02T10:02:27.724Z,101653.34
2018-07-02T10:04:55.328Z,101650.00
2018-07-02T10:07:22.960Z,101641.64
2018-07-02T10:09:50.559Z,101636.63
2018-07-02T10:12:18.267Z,101630.09
2018-07-02T10:14:45.858Z,101620.37
2018-07-02T10:17:13.468Z,101627.05
2018-07-02T10:19:41.072Z,101618.88
2018-07-02T10:22:08.693Z,101619.41
2018-07-02T10:24:36.374Z,101620.17
2018-07-02T10:27:03.949Z,101614.23
2018-07-02T10:29:31.489Z,101612.84
2018-07-02T10:31:59.380Z,101615.64
2018-07-02T10:34:26.922Z,101604.14
2018-07-02T10:36:54.491Z,101601.78
2018-07-02T10:39:22.089Z,101595.95
2018-07-02T10:41:49.647Z,101591.44
2018-07-02T10:44:17.246Z,101596.31
2018-07-02T10:46:44.779Z,101598.63
2018-07-02T10:49:12.406Z,101583.70
2018-07-02T10:51:40.012Z,101590.61
2018-07-02T10:54:07.618Z,101584.08
2018-07-02T10:56:35.172Z,101583.65
2018-07-02T10:59:02.820Z,101579.91
2018-07-02T11:01:30.388Z,101573.01
2018-07-02T11:03:58.000Z,101564.86
2018-07-02T11:06:25.581Z,101566.88
2018-07-02T11:08:53.184Z,101563.44
2018-07-02T11:11:20.773Z,101563.09
2018-07-02T11:13:48.351Z,101563.50
2018-07-02T11:16:16.676Z,101572.20
2018-07-02T11:18:44.215Z,101558.50
2018-07-02T11:21:11.913Z,101569.41
2018-07-02T11:23:39.497Z,101557.58
2018-07-02T11:26:07.096Z,101559.94
2018-07-02T11:28:34.760Z,101552.33
2018-07-02T11:31:02.317Z,101560.20
2018-07-02T11:33:29.969Z,101556.11
2018-07-02T11:35:57.541Z,101550.33
2018-07-02T11:38:25.126Z,101557.19
2018-07-02T11:40:52.731Z,101558.70
2018-07-02T11:43:20.327Z,101551.95
2018-07-02T11:45:47.953Z,101557.67
2018-07-02T11:48:15.539Z,101546.64
2018-07-02T11:50:43.111Z,101544.89
2018-07-02T11:53:10.763Z,101547.38
2018-07-02T11:55:38.722Z,101542.23
2018-07-02T11:58:06.315Z,101535.65
2018-07-02T12:00:33.917Z,101533.20
2018-07-02T12:03:01.477Z,101532.73
2018-07-02T12:05:29.047Z,101528.09
2018-07-02T12:07:56.624Z,101530.75
2018-07-02T12:10:24.168Z,101528.36
2018-07-02T12:12:51.732Z,101522.44
2018-07-02T12:15:19.319Z,101519.52
2018-07-02T12:17:46.904Z,101524.84
2018-07-02T12:20:14.500Z,101525.50
2018-07-02T12:22:42.048Z,101521.53
2018-07-02T12:25:09.630Z,101522.38
2018-07-02T12:27:37.272Z,101524.53
2018-07-02T12:30:05.022Z,101519.66
2018-07-02T12:32:32.715Z,101522.41
2018-07-02T12:35:00.434Z,101533.30
2018-07-02T12:37:28.031Z,101520.47
2018-07-02T12:39:55.681Z,101521.19
2018-07-02T12:42:23.327Z,101523.37
2018-07-02T12:44:50.918Z,101520.73
2018-07-02T12:47:18.560Z,101508.74
2018-07-02T12:49:46.318Z,101503.46
2018-07-02T12:52:13.953Z,101503.88
2018-07-02T12:54:41.569Z,101508.33
2018-07-02T12:57:09.167Z,101506.27
2018-07-02T12:59:36.787Z,101495.03
2018-07-02T13:02:04.414Z,101494.02
2018-07-02T13:04:32.025Z,101490.03
2018-07-02T13:06:59.656Z,101492.64
2018-07-02T13:09:27.231Z,101478.11
2018-07-02T13:11:54.762Z,101466.41
2018-07-02T13:14:22.349Z,101467.32
2018-07-02T13:16:49.869Z,101462.39
2018-07-02T13:19:17.535Z,101466.75
2018-07-02T13:21:45.189Z,101458.67
2018-07-02T13:24:12.916Z,101455.91
2018-07-02T13:26:40.456Z,101443.56
2018-07-02T13:29:08.042Z,101443.84
2018-07-02T13:31:35.632Z,101437.02
2018-07-02T13:34:03.254Z,101434.49
2018-07-02T13:36:30.874Z,101431.73
2018-07-02T13:38:58.447Z,101426.97
2018-07-02T13:41:25.991Z,101416.91
2018-07-02T13:43:53.548Z,101419.52
2018-07-02T13:46:21.192Z,101413.14
2018-07-02T13:48:48.712Z,101412.95
2018-07-02T13:51:16.328Z,101413.73
2018-07-02T13:53:43.900Z,101408.42
2018-07-02T13:56:11.474Z,101406.58
2018-07-02T13:58:39.082Z,101402.50
2018-07-02T14:01:06.660Z,101405.14
2018-07-02T14:03:34.431Z,101405.52
2018-07-02T14:06:02.040Z,101394.64
2018-07-02T14:08:29.643Z,101390.13
2018-07-02T14:10:57.219Z,101390.50
2018-07-02T14:13:24.841Z,101391.07
2018-07-02T14:15:52.434Z,101394.59
2018-07-02T14:18:20.263Z,101388.59
2018-07-02T14:20:47.963Z,101382.72
2018-07-02T14:23:15.535Z,101384.73
2018-07-02T14:25:43.178Z,101375.50
2018-07-02T14:28:10.831Z,101370.73
2018-07-02T14:30:38.372Z,101379.19
2018-07-02T14:33:06.066Z,101370.31
2018-07-02T14:35:33.608Z,101371.16
2018-07-02T14:38:01.247Z,101372.61
2018-07-02T14:40:28.898Z,101366.38
2018-07-02T14:42:56.545Z,101369.78
2018-07-02T14:45:24.386Z,101357.61
2018-07-02T14:47:51.771Z,101356.67
2018-07-02T14:50:19.329Z,101353.57
2018-07-02T14:52:46.926Z,101351.03
2018-07-02T14:55:14.532Z,101345.14
2018-07-02T14:57:42.152Z,101347.59
2018-07-02T15:00:09.741Z,101347.08
2018-07-02T15:02:37.483Z,101352.16
2018-07-02T15:05:05.352Z,101347.57
2018-07-02T15:07:33.007Z,101354.86
2018-07-02T15:10:00.660Z,101357.75
2018-07-02T15:12:28.226Z,101352.05
2018-07-02T15:14:55.853Z,101356.09
2018-07-02T15:17:23.432Z,101356.63
2018-07-02T15:19:50.991Z,101360.23
2018-07-02T15:22:18.681Z,101353.48
2018-07-02T15:24:46.276Z,101351.19
2018-07-02T15:27:13.908Z,101354.15
2018-07-02T15:29:41.534Z,101347.77
2018-07-02T15:32:09.892Z,101353.54
2018-07-02T15:34:37.508Z,101351.09
2018-07-02T15:37:05.476Z,101348.41
2018-07-02T15:39:33.058Z,101342.88
2018-07-02T15:42:00.678Z,101341.17
2018-07-02T15:44:28.292Z,101342.88
2018-07-02T15:46:56.023Z,101351.55
2018-07-02T15:49:23.622Z,101342.62
2018-07-02T15:51:51.486Z,101347.14
2018-07-02T15:54:19.134Z,101343.83
2018-07-02T15:56:46.707Z,101342.48
2018-07-02T15:59:14.370Z,101338.20
2018-07-02T16:01:41.983Z,101333.89
2018-07-02T16:04:10.247Z,101329.85
2018-07-02T16:06:37.852Z,101338.17
2018-07-02T16:09:07.984Z,101329.23
2018-07-02T16:11:35.604Z,101326.64
2018-07-02T16:14:03.163Z,101328.37
2018-07-02T16:16:30.785Z,101327.51
2018-07-02T16:18:58.445Z,101327.23
2018-07-02T16:21:26.262Z,101323.67
2018-07-02T16:23:53.862Z,101325.02
2018-07-02T16:26:21.541Z,101319.05
2018-07-02T16:28:49.167Z,101317.63
2018-07-02T16:31:16.769Z,101322.33
2018-07-02T16:33:44.393Z,101331.22
2018-07-02T16:36:12.014Z,101318.21
2018-07-02T16:38:39.665Z,101316.14
2018-07-02T16:41:07.245Z,101316.99
2018-07-02T16:43:34.803Z,101326.02
2018-07-02T16:46:02.403Z,101322.81
2018-07-02T16:48:29.943Z,101322.95
2018-07-02T16:50:57.532Z,101326.27
2018-07-02T16:53:25.604Z,101313.39
2018-07-02T16:55:53.231Z,101314.64
2018-07-02T16:58:20.874Z,101314.50
2018-07-02T17:00:48.519Z,101307.68
2018-07-02T17:03:16.139Z,101304.36
2018-07-02T17:05:43.727Z,101307.81
2018-07-02T17:08:11.319Z,101300.08
2018-07-02T17:10:38.907Z,101304.22
2018-07-02T17:13:06.451Z,101299.12
2018-07-02T17:15:34.072Z,101296.42
2018-07-02T17:18:01.640Z,101296.77
2018-07-02T17:20:29.230Z,101294.08
2018-07-02T17:22:56.812Z,101288.08
2018-07-02T17:25:24.448Z,101279.38
2018-07-02T17:27:52.111Z,101280.00
2018-07-02T17:30:19.679Z,101282.30
2018-07-02T17:32:47.244Z,101284.74
2018-07-02T17:35:14.885Z,101283.63
2018-07-02T17:37:42.482Z,101271.05
2018-07-02T17:40:10.088Z,101277.16
2018-07-02T17:42:37.807Z,101271.93
2018-07-02T17:45:05.756Z,101270.58
2018-07-02T17:47:33.502Z,101268.63
2018-07-02T17:50:01.135Z,101262.75
2018-07-02T17:52:28.699Z,101261.64
2018-07-02T17:54:56.514Z,101265.05
2018-07-02T17:57:24.110Z,101258.58
2018-07-02T17:59:51.681Z,101258.58
2018-07-02T18:02:19.239Z,101252.33
2018-07-02T18:04:46.817Z,101241.47
2018-07-02T18:07:14.448Z,101243.77
2018-07-02T18:09:42.142Z,101238.24
2018-07-02T18:12:09.735Z,101235.46
2018-07-02T18:14:37.299Z,101246.13
2018-07-02T18:17:05.071Z,101243.78
2018-07-02T18:19:32.643Z,101240.36
2018-07-02T18:22:00.563Z,101243.53
2018-07-02T18:24:28.088Z,101245.22
2018-07-02T18:26:55.663Z,101252.80
2018-07-02T18:29:23.222Z,101252.90
2018-07-02T18:31:50.774Z,101259.61
2018-07-02T18:34:18.276Z,101255.81
2018-07-02T18:36:45.796Z,101253.27
2018-07-02T18:39:13.347Z,101254.56
2018-07-02T18:41:41.122Z,101237.17
2018-07-02T18:44:08.776Z,101246.97
2018-07-02T18:46:36.536Z,101253.55
2018-07-02T18:49:04.361Z,101247.77
2018-07-02T18:51:31.974Z,101249.73
2018-07-02T18:53:59.499Z,101243.23
2018-07-02T18:56:27.205Z,101245.16
2018-07-02T18:58:54.781Z,101242.70
2018-07-02T19:01:22.492Z,101244.00
2018-07-02T19:03:50.035Z,101232.77
2018-07-02T19:06:17.566Z,101235.16
2018-07-02T19:08:45.088Z,101229.88
2018-07-02T19:11:12.620Z,101234.49
2018-07-02T19:13:40.130Z,101231.42
2018-07-02T19:16:07.660Z,101231.52
2018-07-02T19:18:35.307Z,101226.52
2018-07-02T19:21:02.828Z,101227.80
2018-07-02T19:23:30.361Z,101233.16
2018-07-02T19:25:57.891Z,101223.60
2018-07-02T19:28:25.627Z,101229.97
2018-07-02T19:30:53.179Z,101228.39
2018-07-02T19:33:20.713Z,101225.48
2018-07-02T19:35:48.260Z,101232.52
2018-07-02T19:38:15.784Z,101235.34
2018-07-02T19:40:43.710Z,101227.63
2018-07-02T19:43:11.212Z,101230.31
2018-07-02T19:45:41.356Z,101227.28
2018-07-02T19:48:08.899Z,101228.24
2018-07-02T19:50:36.399Z,101230.31
2018-07-02T19:53:03.936Z,101231.89
2018-07-02T19:55:31.443Z,101233.94
2018-07-02T19:57:58.988Z,101235.98
2018-07-02T20:00:26.544Z,101235.48
2018-07-02T20:02:54.130Z,101232.16
2018-07-02T20:05:21.620Z,101234.44
2018-07-02T20:07:49.166Z,101233.31
2018-07-02T20:10:16.680Z,101233.89
2018-07-02T20:12:44.195Z,101231.43
2018-07-02T20:15:11.704Z,101234.95
2018-07-02T20:17:39.255Z,101234.41
2018-07-02T20:20:08.186Z,101238.65
2018-07-02T20:22:35.809Z,101238.01
2018-07-02T20:25:03.366Z,101234.91
2018-07-02T20:27:30.883Z,101242.91
2018-07-02T20:29:58.416Z,101244.70
2018-07-02T20:32:25.980Z,101240.78
2018-07-02T20:34:53.588Z,101232.22
2018-07-02T20:37:21.338Z,101230.70
2018-07-02T20:39:48.907Z,101219.45
2018-07-02T20:42:16.447Z,101221.33
2018-07-02T20:44:44.040Z,101223.95
2018-07-02T20:47:12.240Z,101213.16
2018-07-02T20:49:40.829Z,101209.56
2018-07-02T20:52:08.422Z,101205.23
2018-07-02T20:54:35.954Z,101211.10
2018-07-02T20:57:03.531Z,101216.03
2018-07-02T20:59:31.128Z,101204.86
2018-07-02T21:01:58.691Z,101202.81
2018-07-02T21:04:26.229Z,101194.81
2018-07-02T21:06:53.779Z,101196.18
2018-07-02T21:09:21.384Z,101194.66
2018-07-02T21:11:48.953Z,101202.87
2018-07-02T21:14:16.543Z,101189.70
2018-07-02T21:16:44.159Z,101197.95
2018-07-02T21:19:11.696Z,101182.02
2018-07-02T21:21:39.280Z,101186.80
2018-07-02T21:24:06.911Z,101182.13
2018-07-02T21:26:34.502Z,101175.10
2018-07-02T21:29:02.039Z,101176.45
2018-07-02T21:31:29.620Z,101178.56
2018-07-02T21:33:57.153Z,101174.08
2018-07-02T21:36:24.711Z,101170.19
2018-07-02T21:38:52.276Z,101161.58
2018-07-02T21:41:19.824Z,101158.71
2018-07-02T21:43:47.418Z,101167.05
2018-07-02T21:46:14.967Z,101160.65
2018-07-02T21:48:42.474Z,101169.08
2018-07-02T21:51:10.006Z,101160.50
2018-07-02T21:53:37.546Z,101164.40
2018-07-02T21:56:05.176Z,101168.14
2018-07-02T21:58:32.785Z,101171.59
2018-07-02T22:01:00.321Z,101165.23
2018-07-02T22:03:27.910Z,101167.75
2018-07-02T22:05:55.415Z,101164.40
2018-07-02T22:08:22.940Z,101170.30
2018-07-02T22:10:50.543Z,101171.75
2018-07-02T22:13:18.072Z,101167.94
2018-07-02T22:15:45.575Z,101168.41
2018-07-02T22:18:13.095Z,101163.33
2018-07-02T22:20:40.605Z,101165.05
2018-07-02T22:23:08.137Z,101161.23
2018-07-02T22:25:35.945Z,101159.31
2018-07-02T22:28:03.527Z,101160.75
2018-07-02T22:30:31.060Z,101155.96
2018-07-02T22:32:58.569Z,101155.88
2018-07-02T22:35:26.104Z,101149.86
2018-07-02T22:37:53.621Z,101142.12
2018-07-02T22:40:21.187Z,101144.98
2018-07-02T22:42:48.691Z,101144.31
2018-07-02T22:45:16.298Z,101136.13
2018-07-02T22:47:43.828Z,101134.86
2018-07-02T22:50:11.403Z,101140.39
2018-07-02T22:52:38.907Z,101138.86
2018-07-02T22:55:06.479Z,101132.77
2018-07-02T22:57:34.907Z,101137.70
2018-07-02T23:00:02.431Z,101136.48
2018-07-02T23:02:29.966Z,101136.95
2018-07-02T23:04:57.499Z,101138.37
2018-07-02T23:07:25.035Z,101133.69
2018-07-02T23:09:52.699Z,101129.39
2018-07-02T23:12:20.200Z,101134.45
2018-07-02T23:14:47.716Z,101127.97
2018-07-02T23:17:15.235Z,101126.23
2018-07-02T23:19:42.799Z,101128.44
2018-07-02T23:22:10.339Z,101123.64
2018-07-02T23:24:37.869Z,101126.02
2018-07-02T23:27:05.491Z,101132.34
2018-07-02T23:29:33.060Z,101134.91
2018-07-02T23:32:00.543Z,101126.61
2018-07-02T23:34:28.094Z,101122.50
2018-07-02T23:36:55.589Z,101116.16
2018-07-02T23:39:23.098Z,101122.55
2018-07-02T23:41:50.605Z,101121.33
2018-07-02T23:44:18.106Z,101117.58
2018-07-02T23:46:45.595Z,101111.56
2018-07-02T23:49:13.074Z,101106.84
2018-07-02T23:51:40.647Z,101109.62
2018-07-02T23:54:08.150Z,101108.36
2018-07-02T23:56:35.691Z,101105.70
2018-07-02T23:59:03.255Z,101111.11
